sensor_id;sensor_type;location;lat;lon;timestamp;temperature;humidity
2851;DHT22;1433;49.976;8.342;2023-12-22T00:00:10;4.80;99.90
2851;DHT22;1433;49.976;8.342;2023-12-22T00:02:36;4.80;99.90
2851;DHT22;1433;49.976;8.342;2023-12-22T00:05:02;4.80;99.90
2851;DHT22;1433;49.976;8.342;2023-12-22T00:07:29;4.80;99.90
2851;DHT22;1433;49.976;8.342;2023-12-22T00:09:55;4.70;99.90
2851;DHT22;1433;49.976;8.342;2023-12-22T00:12:21;4.80;99.90
2851;DHT22;1433;49.976;8.342;2023-12-22T00:14:47;4.70;99.90
2851;DHT22;1433;49.976;8.342;2023-12-22T00:17:13;4.70;99.90
2851;DHT22;1433;49.976;8.342;2023-12-22T00:19:39;4.70;99.90
2851;DHT22;1433;49.976;8.342;2023-12-22T00:22:06;4.70;99.90
2851;DHT22;1433;49.976;8.342;2023-12-22T00:24:32;4.70;99.90
2851;DHT22;1433;49.976;8.342;2023-12-22T00:26:58;4.80;99.90
2851;DHT22;1433;49.976;8.342;2023-12-22T00:29:25;4.70;99.90
2851;DHT22;1433;49.976;8.342;2023-12-22T00:31:51;4.70;99.90
2851;DHT22;1433;49.976;8.342;2023-12-22T00:34:17;4.70;99.90
2851;DHT22;1433;49.976;8.342;2023-12-22T00:36:45;4.70;99.90
2851;DHT22;1433;49.976;8.342;2023-12-22T00:39:11;4.70;99.90
2851;DHT22;1433;49.976;8.342;2023-12-22T00:41:37;4.80;99.90
2851;DHT22;1433;49.976;8.342;2023-12-22T00:44:04;4.90;99.90
2851;DHT22;1433;49.976;8.342;2023-12-22T00:46:30;5.00;99.90
2851;DHT22;1433;49.976;8.342;2023-12-22T00:48:56;5.20;99.90
2851;DHT22;1433;49.976;8.342;2023-12-22T00:51:24;5.40;99.90
2851;DHT22;1433;49.976;8.342;2023-12-22T00:53:50;5.60;99.90
2851;DHT22;1433;49.976;8.342;2023-12-22T00:56:16;5.90;99.90
2851;DHT22;1433;49.976;8.342;2023-12-22T00:58:42;5.70;99.90
2851;DHT22;1433;49.976;8.342;2023-12-22T01:01:08;5.70;99.90
2851;DHT22;1433;49.976;8.342;2023-12-22T01:03:35;5.60;99.90
2851;DHT22;1433;49.976;8.342;2023-12-22T01:06:01;5.60;99.90
2851;DHT22;1433;49.976;8.342;2023-12-22T01:08:27;5.70;99.90
2851;DHT22;1433;49.976;8.342;2023-12-22T01:10:53;5.80;99.90
2851;DHT22;1433;49.976;8.342;2023-12-22T01:13:20;5.90;99.90
2851;DHT22;1433;49.976;8.342;2023-12-22T01:15:47;5.90;99.90
2851;DHT22;1433;49.976;8.342;2023-12-22T01:18:13;6.00;99.90
2851;DHT22;1433;49.976;8.342;2023-12-22T01:20:39;6.00;99.90
2851;DHT22;1433;49.976;8.342;2023-12-22T01:23:06;6.00;99.90
2851;DHT22;1433;49.976;8.342;2023-12-22T01:25:32;5.90;99.90
2851;DHT22;1433;49.976;8.342;2023-12-22T01:27:58;5.90;99.90
2851;DHT22;1433;49.976;8.342;2023-12-22T01:30:24;5.80;99.90
2851;DHT22;1433;49.976;8.342;2023-12-22T01:32:51;5.80;99.90
2851;DHT22;1433;49.976;8.342;2023-12-22T01:35:17;5.70;99.90
2851;DHT22;1433;49.976;8.342;2023-12-22T01:37:44;5.50;99.90
2851;DHT22;1433;49.976;8.342;2023-12-22T01:40:10;5.50;99.90
2851;DHT22;1433;49.976;8.342;2023-12-22T01:42:36;5.50;99.90
2851;DHT22;1433;49.976;8.342;2023-12-22T01:45:02;5.50;99.90
2851;DHT22;1433;49.976;8.342;2023-12-22T01:47:29;5.60;99.90
2851;DHT22;1433;49.976;8.342;2023-12-22T01:49:55;5.60;99.90
2851;DHT22;1433;49.976;8.342;2023-12-22T01:52:22;5.60;99.90
2851;DHT22;1433;49.976;8.342;2023-12-22T01:54:49;5.60;99.90
2851;DHT22;1433;49.976;8.342;2023-12-22T01:57:16;5.60;99.90
2851;DHT22;1433;49.976;8.342;2023-12-22T01:59:46;5.50;99.90
2851;DHT22;1433;49.976;8.342;2023-12-22T02:02:13;5.50;99.90
2851;DHT22;1433;49.976;8.342;2023-12-22T02:04:40;5.60;99.90
2851;DHT22;1433;49.976;8.342;2023-12-22T02:07:08;5.60;99.90
2851;DHT22;1433;49.976;8.342;2023-12-22T02:09:36;5.60;99.90
2851;DHT22;1433;49.976;8.342;2023-12-22T02:12:03;5.60;99.90
2851;DHT22;1433;49.976;8.342;2023-12-22T02:14:30;5.60;99.90
2851;DHT22;1433;49.976;8.342;2023-12-22T02:19:50;5.60;99.90
2851;DHT22;1433;49.976;8.342;2023-12-22T02:22:17;5.70;99.90
2851;DHT22;1433;49.976;8.342;2023-12-22T02:24:43;5.70;99.90
2851;DHT22;1433;49.976;8.342;2023-12-22T02:27:21;5.70;99.90
2851;DHT22;1433;49.976;8.342;2023-12-22T02:30:09;5.80;99.90
2851;DHT22;1433;49.976;8.342;2023-12-22T02:32:38;5.80;99.90
2851;DHT22;1433;49.976;8.342;2023-12-22T02:35:11;5.80;99.90
2851;DHT22;1433;49.976;8.342;2023-12-22T02:37:39;5.70;99.90
2851;DHT22;1433;49.976;8.342;2023-12-22T02:40:07;5.70;99.90
2851;DHT22;1433;49.976;8.342;2023-12-22T02:42:36;5.70;99.90
2851;DHT22;1433;49.976;8.342;2023-12-22T02:45:03;5.80;99.90
2851;DHT22;1433;49.976;8.342;2023-12-22T02:47:30;5.80;99.90
2851;DHT22;1433;49.976;8.342;2023-12-22T02:49:58;5.80;99.90
2851;DHT22;1433;49.976;8.342;2023-12-22T02:52:24;5.80;99.90
2851;DHT22;1433;49.976;8.342;2023-12-22T02:54:51;5.80;99.90
2851;DHT22;1433;49.976;8.342;2023-12-22T02:57:17;5.70;99.90
2851;DHT22;1433;49.976;8.342;2023-12-22T02:59:43;5.60;99.90
2851;DHT22;1433;49.976;8.342;2023-12-22T03:02:09;5.60;99.90
2851;DHT22;1433;49.976;8.342;2023-12-22T03:04:35;5.50;99.90
2851;DHT22;1433;49.976;8.342;2023-12-22T03:07:01;5.50;99.90
2851;DHT22;1433;49.976;8.342;2023-12-22T03:09:28;5.50;99.90
2851;DHT22;1433;49.976;8.342;2023-12-22T03:11:54;5.50;99.90
2851;DHT22;1433;49.976;8.342;2023-12-22T03:14:22;5.50;99.90
2851;DHT22;1433;49.976;8.342;2023-12-22T03:16:49;5.50;99.90
2851;DHT22;1433;49.976;8.342;2023-12-22T03:19:15;5.50;99.90
2851;DHT22;1433;49.976;8.342;2023-12-22T03:21:41;5.50;99.90
2851;DHT22;1433;49.976;8.342;2023-12-22T03:24:08;5.50;99.90
2851;DHT22;1433;49.976;8.342;2023-12-22T03:26:34;5.50;99.90
2851;DHT22;1433;49.976;8.342;2023-12-22T03:29:00;5.60;99.90
2851;DHT22;1433;49.976;8.342;2023-12-22T03:31:26;5.80;99.90
2851;DHT22;1433;49.976;8.342;2023-12-22T03:33:52;6.10;99.90
2851;DHT22;1433;49.976;8.342;2023-12-22T03:36:18;6.40;99.90
2851;DHT22;1433;49.976;8.342;2023-12-22T03:38:44;6.60;99.90
2851;DHT22;1433;49.976;8.342;2023-12-22T03:41:11;6.60;99.90
2851;DHT22;1433;49.976;8.342;2023-12-22T03:43:37;6.70;99.90
2851;DHT22;1433;49.976;8.342;2023-12-22T03:46:03;6.60;99.90
2851;DHT22;1433;49.976;8.342;2023-12-22T03:48:29;6.70;99.90
2851;DHT22;1433;49.976;8.342;2023-12-22T03:50:55;6.70;99.90
2851;DHT22;1433;49.976;8.342;2023-12-22T03:53:21;6.60;99.90
2851;DHT22;1433;49.976;8.342;2023-12-22T03:55:49;6.60;99.90
2851;DHT22;1433;49.976;8.342;2023-12-22T03:58:15;6.60;99.90
2851;DHT22;1433;49.976;8.342;2023-12-22T04:00:41;6.60;99.90
2851;DHT22;1433;49.976;8.342;2023-12-22T04:03:07;6.80;99.90
2851;DHT22;1433;49.976;8.342;2023-12-22T04:05:33;6.80;99.90
2851;DHT22;1433;49.976;8.342;2023-12-22T04:07:59;6.80;99.90
2851;DHT22;1433;49.976;8.342;2023-12-22T04:10:25;6.80;99.90
2851;DHT22;1433;49.976;8.342;2023-12-22T04:12:51;6.80;99.90
2851;DHT22;1433;49.976;8.342;2023-12-22T04:15:18;6.80;99.90
2851;DHT22;1433;49.976;8.342;2023-12-22T04:17:44;6.80;99.90
2851;DHT22;1433;49.976;8.342;2023-12-22T04:20:10;6.80;99.90
2851;DHT22;1433;49.976;8.342;2023-12-22T04:22:36;6.80;99.90
2851;DHT22;1433;49.976;8.342;2023-12-22T04:25:02;6.80;99.90
2851;DHT22;1433;49.976;8.342;2023-12-22T04:27:28;6.90;99.90
2851;DHT22;1433;49.976;8.342;2023-12-22T04:29:54;6.80;99.90
2851;DHT22;1433;49.976;8.342;2023-12-22T04:32:21;6.90;99.90
2851;DHT22;1433;49.976;8.342;2023-12-22T04:34:47;6.90;99.90
2851;DHT22;1433;49.976;8.342;2023-12-22T04:37:13;6.80;99.90
2851;DHT22;1433;49.976;8.342;2023-12-22T04:39:40;6.80;99.90
2851;DHT22;1433;49.976;8.342;2023-12-22T04:42:06;7.00;99.90
2851;DHT22;1433;49.976;8.342;2023-12-22T04:44:32;7.00;99.90
2851;DHT22;1433;49.976;8.342;2023-12-22T04:46:58;7.00;99.90
2851;DHT22;1433;49.976;8.342;2023-12-22T04:49:25;7.00;99.90
2851;DHT22;1433;49.976;8.342;2023-12-22T04:51:51;7.10;99.90
2851;DHT22;1433;49.976;8.342;2023-12-22T04:54:17;7.10;99.90
2851;DHT22;1433;49.976;8.342;2023-12-22T04:56:43;7.10;99.90
2851;DHT22;1433;49.976;8.342;2023-12-22T04:59:09;7.10;99.90
2851;DHT22;1433;49.976;8.342;2023-12-22T05:01:35;7.10;99.90
2851;DHT22;1433;49.976;8.342;2023-12-22T05:04:02;7.00;99.90
2851;DHT22;1433;49.976;8.342;2023-12-22T05:06:28;7.10;99.90
2851;DHT22;1433;49.976;8.342;2023-12-22T05:08:55;7.10;99.90
2851;DHT22;1433;49.976;8.342;2023-12-22T05:11:22;7.10;99.90
2851;DHT22;1433;49.976;8.342;2023-12-22T05:13:48;7.10;99.90
2851;DHT22;1433;49.976;8.342;2023-12-22T05:16:15;7.10;99.90
2851;DHT22;1433;49.976;8.342;2023-12-22T05:18:41;6.80;99.90
2851;DHT22;1433;49.976;8.342;2023-12-22T05:21:07;6.60;99.90
2851;DHT22;1433;49.976;8.342;2023-12-22T05:23:33;6.60;99.90
2851;DHT22;1433;49.976;8.342;2023-12-22T05:25:59;6.50;99.90
2851;DHT22;1433;49.976;8.342;2023-12-22T05:28:25;6.40;99.90
2851;DHT22;1433;49.976;8.342;2023-12-22T05:30:51;6.50;99.90
2851;DHT22;1433;49.976;8.342;2023-12-22T05:33:17;6.60;99.90
2851;DHT22;1433;49.976;8.342;2023-12-22T05:35:44;6.50;99.90
2851;DHT22;1433;49.976;8.342;2023-12-22T05:38:10;6.60;99.90
2851;DHT22;1433;49.976;8.342;2023-12-22T05:40:36;6.70;99.90
2851;DHT22;1433;49.976;8.342;2023-12-22T05:43:02;6.80;99.90
2851;DHT22;1433;49.976;8.342;2023-12-22T05:45:28;6.80;99.90
2851;DHT22;1433;49.976;8.342;2023-12-22T05:47:54;6.80;99.90
2851;DHT22;1433;49.976;8.342;2023-12-22T05:50:21;6.80;99.90
2851;DHT22;1433;49.976;8.342;2023-12-22T05:52:47;6.70;99.90
2851;DHT22;1433;49.976;8.342;2023-12-22T05:55:13;6.60;99.90
2851;DHT22;1433;49.976;8.342;2023-12-22T05:57:39;6.60;99.90
2851;DHT22;1433;49.976;8.342;2023-12-22T06:00:06;6.60;99.90
2851;DHT22;1433;49.976;8.342;2023-12-22T06:02:33;6.60;99.90
2851;DHT22;1433;49.976;8.342;2023-12-22T06:05:00;6.60;99.90
2851;DHT22;1433;49.976;8.342;2023-12-22T06:07:26;6.30;99.90
2851;DHT22;1433;49.976;8.342;2023-12-22T06:09:52;6.30;99.90
2851;DHT22;1433;49.976;8.342;2023-12-22T06:12:18;6.30;99.90
2851;DHT22;1433;49.976;8.342;2023-12-22T06:14:44;6.30;99.90
2851;DHT22;1433;49.976;8.342;2023-12-22T06:17:11;6.20;99.90
2851;DHT22;1433;49.976;8.342;2023-12-22T06:19:37;6.20;99.90
2851;DHT22;1433;49.976;8.342;2023-12-22T06:22:03;6.10;99.90
2851;DHT22;1433;49.976;8.342;2023-12-22T06:24:29;6.10;99.90
2851;DHT22;1433;49.976;8.342;2023-12-22T06:26:55;6.20;99.90
2851;DHT22;1433;49.976;8.342;2023-12-22T06:29:22;6.20;99.90
2851;DHT22;1433;49.976;8.342;2023-12-22T06:31:48;6.20;99.90
2851;DHT22;1433;49.976;8.342;2023-12-22T06:34:17;6.20;99.90
2851;DHT22;1433;49.976;8.342;2023-12-22T06:36:43;6.40;99.90
2851;DHT22;1433;49.976;8.342;2023-12-22T06:39:09;6.60;99.90
2851;DHT22;1433;49.976;8.342;2023-12-22T06:41:35;6.60;99.90
2851;DHT22;1433;49.976;8.342;2023-12-22T06:44:02;6.70;99.90
2851;DHT22;1433;49.976;8.342;2023-12-22T06:46:28;6.70;99.90
2851;DHT22;1433;49.976;8.342;2023-12-22T06:48:56;6.70;99.90
2851;DHT22;1433;49.976;8.342;2023-12-22T06:53:53;6.80;99.90
2851;DHT22;1433;49.976;8.342;2023-12-22T06:56:23;6.80;99.90
2851;DHT22;1433;49.976;8.342;2023-12-22T06:58:51;6.90;99.90
2851;DHT22;1433;49.976;8.342;2023-12-22T07:03:58;7.00;99.90
2851;DHT22;1433;49.976;8.342;2023-12-22T07:06:28;7.00;99.90
2851;DHT22;1433;49.976;8.342;2023-12-22T07:11:43;7.10;99.90
2851;DHT22;1433;49.976;8.342;2023-12-22T07:14:09;7.10;99.90
2851;DHT22;1433;49.976;8.342;2023-12-22T07:16:36;7.10;99.90
2851;DHT22;1433;49.976;8.342;2023-12-22T07:19:03;7.30;99.90
2851;DHT22;1433;49.976;8.342;2023-12-22T07:21:29;7.30;99.90
2851;DHT22;1433;49.976;8.342;2023-12-22T07:23:55;7.30;99.90
2851;DHT22;1433;49.976;8.342;2023-12-22T07:26:21;7.40;99.90
2851;DHT22;1433;49.976;8.342;2023-12-22T07:28:50;7.40;99.90
2851;DHT22;1433;49.976;8.342;2023-12-22T07:31:16;7.50;99.90
2851;DHT22;1433;49.976;8.342;2023-12-22T07:33:43;7.60;99.90
2851;DHT22;1433;49.976;8.342;2023-12-22T07:36:09;7.60;99.90
2851;DHT22;1433;49.976;8.342;2023-12-22T07:38:36;7.60;99.90
2851;DHT22;1433;49.976;8.342;2023-12-22T07:41:02;7.70;99.90
2851;DHT22;1433;49.976;8.342;2023-12-22T07:43:28;7.70;99.90
2851;DHT22;1433;49.976;8.342;2023-12-22T07:45:55;7.80;99.90
2851;DHT22;1433;49.976;8.342;2023-12-22T07:48:21;7.70;99.90
2851;DHT22;1433;49.976;8.342;2023-12-22T07:50:48;7.90;99.90
2851;DHT22;1433;49.976;8.342;2023-12-22T07:53:14;8.00;99.90
2851;DHT22;1433;49.976;8.342;2023-12-22T07:55:40;8.10;99.90
2851;DHT22;1433;49.976;8.342;2023-12-22T07:58:06;8.10;99.90
2851;DHT22;1433;49.976;8.342;2023-12-22T08:00:33;8.20;99.90
2851;DHT22;1433;49.976;8.342;2023-12-22T08:03:00;8.20;99.90
2851;DHT22;1433;49.976;8.342;2023-12-22T08:05:26;8.30;99.90
2851;DHT22;1433;49.976;8.342;2023-12-22T08:07:52;8.30;99.90
2851;DHT22;1433;49.976;8.342;2023-12-22T08:10:19;8.30;99.90
2851;DHT22;1433;49.976;8.342;2023-12-22T08:12:45;8.30;99.90
2851;DHT22;1433;49.976;8.342;2023-12-22T08:15:11;8.30;99.90
2851;DHT22;1433;49.976;8.342;2023-12-22T08:17:50;8.30;99.90
2851;DHT22;1433;49.976;8.342;2023-12-22T08:20:20;8.20;99.90
2851;DHT22;1433;49.976;8.342;2023-12-22T08:22:48;7.80;99.90
2851;DHT22;1433;49.976;8.342;2023-12-22T08:25:15;7.40;99.90
2851;DHT22;1433;49.976;8.342;2023-12-22T08:27:41;7.10;99.90
2851;DHT22;1433;49.976;8.342;2023-12-22T08:30:09;7.00;99.90
2851;DHT22;1433;49.976;8.342;2023-12-22T08:32:35;7.00;99.90
2851;DHT22;1433;49.976;8.342;2023-12-22T08:35:01;7.00;99.90
2851;DHT22;1433;49.976;8.342;2023-12-22T08:37:29;7.00;99.90
2851;DHT22;1433;49.976;8.342;2023-12-22T08:39:55;7.00;99.90
2851;DHT22;1433;49.976;8.342;2023-12-22T08:42:22;6.90;99.90
2851;DHT22;1433;49.976;8.342;2023-12-22T08:44:48;6.90;99.90
2851;DHT22;1433;49.976;8.342;2023-12-22T08:47:14;6.90;99.90
2851;DHT22;1433;49.976;8.342;2023-12-22T08:49:41;7.00;99.90
2851;DHT22;1433;49.976;8.342;2023-12-22T08:52:08;7.00;99.90
2851;DHT22;1433;49.976;8.342;2023-12-22T08:54:34;7.00;99.90
2851;DHT22;1433;49.976;8.342;2023-12-22T08:57:02;7.00;99.90
2851;DHT22;1433;49.976;8.342;2023-12-22T08:59:28;7.00;99.90
2851;DHT22;1433;49.976;8.342;2023-12-22T09:01:54;7.00;99.90
2851;DHT22;1433;49.976;8.342;2023-12-22T09:04:21;7.00;99.90
2851;DHT22;1433;49.976;8.342;2023-12-22T09:06:51;7.00;99.90
2851;DHT22;1433;49.976;8.342;2023-12-22T09:09:18;6.90;99.90
2851;DHT22;1433;49.976;8.342;2023-12-22T09:11:44;6.90;99.90
2851;DHT22;1433;49.976;8.342;2023-12-22T09:14:10;6.90;99.90
2851;DHT22;1433;49.976;8.342;2023-12-22T09:16:37;6.90;99.90
2851;DHT22;1433;49.976;8.342;2023-12-22T09:19:04;7.00;99.90
2851;DHT22;1433;49.976;8.342;2023-12-22T09:21:30;7.00;99.90
2851;DHT22;1433;49.976;8.342;2023-12-22T09:23:56;7.10;99.90
2851;DHT22;1433;49.976;8.342;2023-12-22T09:26:23;7.10;99.90
2851;DHT22;1433;49.976;8.342;2023-12-22T09:28:49;7.10;99.90
2851;DHT22;1433;49.976;8.342;2023-12-22T09:31:15;7.10;99.90
2851;DHT22;1433;49.976;8.342;2023-12-22T09:33:42;7.20;99.90
2851;DHT22;1433;49.976;8.342;2023-12-22T09:36:09;7.20;99.90
2851;DHT22;1433;49.976;8.342;2023-12-22T09:38:36;7.20;99.90
2851;DHT22;1433;49.976;8.342;2023-12-22T09:41:04;7.20;99.90
2851;DHT22;1433;49.976;8.342;2023-12-22T09:43:34;7.30;99.90
2851;DHT22;1433;49.976;8.342;2023-12-22T09:46:04;7.50;99.90
2851;DHT22;1433;49.976;8.342;2023-12-22T09:48:33;7.50;99.90
2851;DHT22;1433;49.976;8.342;2023-12-22T09:51:01;7.60;99.90
2851;DHT22;1433;49.976;8.342;2023-12-22T09:53:28;7.70;99.90
2851;DHT22;1433;49.976;8.342;2023-12-22T09:55:58;7.80;99.90
2851;DHT22;1433;49.976;8.342;2023-12-22T09:58:24;7.90;99.90
2851;DHT22;1433;49.976;8.342;2023-12-22T10:00:52;8.00;99.90
2851;DHT22;1433;49.976;8.342;2023-12-22T10:03:20;8.10;99.90
2851;DHT22;1433;49.976;8.342;2023-12-22T10:05:47;8.20;99.90
2851;DHT22;1433;49.976;8.342;2023-12-22T10:08:14;8.20;99.90
2851;DHT22;1433;49.976;8.342;2023-12-22T10:10:41;8.30;99.90
2851;DHT22;1433;49.976;8.342;2023-12-22T10:13:07;8.40;99.90
2851;DHT22;1433;49.976;8.342;2023-12-22T10:15:43;8.40;99.90
2851;DHT22;1433;49.976;8.342;2023-12-22T10:18:11;8.50;99.90
2851;DHT22;1433;49.976;8.342;2023-12-22T10:20:37;8.60;99.90
2851;DHT22;1433;49.976;8.342;2023-12-22T10:23:03;8.80;99.90
2851;DHT22;1433;49.976;8.342;2023-12-22T10:25:30;8.80;99.90
2851;DHT22;1433;49.976;8.342;2023-12-22T10:27:56;8.90;99.90
2851;DHT22;1433;49.976;8.342;2023-12-22T10:30:23;8.90;99.90
2851;DHT22;1433;49.976;8.342;2023-12-22T10:32:51;9.00;99.90
2851;DHT22;1433;49.976;8.342;2023-12-22T10:35:17;9.10;99.90
2851;DHT22;1433;49.976;8.342;2023-12-22T10:37:45;9.20;99.90
2851;DHT22;1433;49.976;8.342;2023-12-22T10:40:13;9.20;99.90
2851;DHT22;1433;49.976;8.342;2023-12-22T10:42:43;9.20;99.90
2851;DHT22;1433;49.976;8.342;2023-12-22T10:45:10;9.30;99.90
2851;DHT22;1433;49.976;8.342;2023-12-22T10:47:38;9.30;99.90
2851;DHT22;1433;49.976;8.342;2023-12-22T10:50:23;9.40;99.90
2851;DHT22;1433;49.976;8.342;2023-12-22T10:52:51;9.50;99.90
2851;DHT22;1433;49.976;8.342;2023-12-22T10:55:19;9.50;99.90
2851;DHT22;1433;49.976;8.342;2023-12-22T10:57:46;9.50;99.90
2851;DHT22;1433;49.976;8.342;2023-12-22T11:00:15;9.50;99.90
2851;DHT22;1433;49.976;8.342;2023-12-22T11:02:47;9.50;99.90
2851;DHT22;1433;49.976;8.342;2023-12-22T11:05:15;9.50;99.90
2851;DHT22;1433;49.976;8.342;2023-12-22T11:07:49;9.40;99.90
2851;DHT22;1433;49.976;8.342;2023-12-22T11:10:14;9.40;99.90
2851;DHT22;1433;49.976;8.342;2023-12-22T11:12:42;9.40;99.90
2851;DHT22;1433;49.976;8.342;2023-12-22T11:15:10;9.40;99.90
2851;DHT22;1433;49.976;8.342;2023-12-22T11:17:37;9.30;99.90
2851;DHT22;1433;49.976;8.342;2023-12-22T11:20:13;9.30;99.90
2851;DHT22;1433;49.976;8.342;2023-12-22T11:22:38;9.30;99.90
2851;DHT22;1433;49.976;8.342;2023-12-22T11:25:07;9.20;99.90
2851;DHT22;1433;49.976;8.342;2023-12-22T11:27:36;9.20;99.90
2851;DHT22;1433;49.976;8.342;2023-12-22T11:30:04;9.20;99.90
2851;DHT22;1433;49.976;8.342;2023-12-22T11:32:33;9.20;99.90
2851;DHT22;1433;49.976;8.342;2023-12-22T11:35:00;9.20;99.90
2851;DHT22;1433;49.976;8.342;2023-12-22T11:37:26;9.20;99.90
2851;DHT22;1433;49.976;8.342;2023-12-22T11:39:52;9.20;99.90
2851;DHT22;1433;49.976;8.342;2023-12-22T11:42:24;9.20;99.90
2851;DHT22;1433;49.976;8.342;2023-12-22T11:44:48;9.10;99.90
2851;DHT22;1433;49.976;8.342;2023-12-22T11:47:15;8.90;99.90
2851;DHT22;1433;49.976;8.342;2023-12-22T11:49:41;8.70;99.90
2851;DHT22;1433;49.976;8.342;2023-12-22T11:52:16;8.50;99.90
2851;DHT22;1433;49.976;8.342;2023-12-22T11:54:48;8.60;99.90
2851;DHT22;1433;49.976;8.342;2023-12-22T12:02:40;8.70;99.90
2851;DHT22;1433;49.976;8.342;2023-12-22T12:05:08;8.80;99.90
2851;DHT22;1433;49.976;8.342;2023-12-22T12:07:43;8.80;99.90
2851;DHT22;1433;49.976;8.342;2023-12-22T12:10:11;8.80;99.90
2851;DHT22;1433;49.976;8.342;2023-12-22T12:12:38;8.80;99.90
2851;DHT22;1433;49.976;8.342;2023-12-22T12:15:13;8.80;99.90
2851;DHT22;1433;49.976;8.342;2023-12-22T12:17:41;8.80;99.90
2851;DHT22;1433;49.976;8.342;2023-12-22T12:20:10;8.80;99.90
2851;DHT22;1433;49.976;8.342;2023-12-22T12:22:39;8.80;99.90
2851;DHT22;1433;49.976;8.342;2023-12-22T12:25:09;8.80;99.90
2851;DHT22;1433;49.976;8.342;2023-12-22T12:27:37;8.80;99.90
2851;DHT22;1433;49.976;8.342;2023-12-22T12:30:11;8.90;99.90
2851;DHT22;1433;49.976;8.342;2023-12-22T12:32:44;8.90;99.90
2851;DHT22;1433;49.976;8.342;2023-12-22T12:35:11;8.90;99.90
2851;DHT22;1433;49.976;8.342;2023-12-22T12:37:38;8.90;99.90
2851;DHT22;1433;49.976;8.342;2023-12-22T12:40:07;9.00;99.90
2851;DHT22;1433;49.976;8.342;2023-12-22T12:42:36;9.10;99.90
2851;DHT22;1433;49.976;8.342;2023-12-22T12:45:06;9.00;99.90
2851;DHT22;1433;49.976;8.342;2023-12-22T12:47:33;9.00;99.90
2851;DHT22;1433;49.976;8.342;2023-12-22T12:50:00;9.10;99.90
2851;DHT22;1433;49.976;8.342;2023-12-22T12:52:27;9.10;99.90
2851;DHT22;1433;49.976;8.342;2023-12-22T12:54:53;9.20;99.90
2851;DHT22;1433;49.976;8.342;2023-12-22T12:57:20;9.20;99.90
2851;DHT22;1433;49.976;8.342;2023-12-22T12:59:54;9.30;99.90
2851;DHT22;1433;49.976;8.342;2023-12-22T13:02:28;9.40;99.90
2851;DHT22;1433;49.976;8.342;2023-12-22T13:04:54;9.40;99.90
2851;DHT22;1433;49.976;8.342;2023-12-22T13:07:24;9.50;99.90
2851;DHT22;1433;49.976;8.342;2023-12-22T13:09:51;9.60;99.90
2851;DHT22;1433;49.976;8.342;2023-12-22T13:12:19;9.70;99.90
2851;DHT22;1433;49.976;8.342;2023-12-22T13:14:46;9.80;99.90
2851;DHT22;1433;49.976;8.342;2023-12-22T13:17:12;10.00;99.90
2851;DHT22;1433;49.976;8.342;2023-12-22T13:19:38;10.10;99.90
2851;DHT22;1433;49.976;8.342;2023-12-22T13:22:05;10.30;99.90
2851;DHT22;1433;49.976;8.342;2023-12-22T13:24:31;10.40;99.90
2851;DHT22;1433;49.976;8.342;2023-12-22T13:27:03;10.50;99.90
2851;DHT22;1433;49.976;8.342;2023-12-22T13:29:30;10.50;99.90
2851;DHT22;1433;49.976;8.342;2023-12-22T13:31:56;10.60;99.90
2851;DHT22;1433;49.976;8.342;2023-12-22T13:34:23;10.70;99.90
2851;DHT22;1433;49.976;8.342;2023-12-22T13:36:50;10.70;99.90
2851;DHT22;1433;49.976;8.342;2023-12-22T13:39:17;10.80;99.90
2851;DHT22;1433;49.976;8.342;2023-12-22T13:41:43;10.70;99.90
2851;DHT22;1433;49.976;8.342;2023-12-22T13:44:12;10.70;99.90
2851;DHT22;1433;49.976;8.342;2023-12-22T13:46:39;10.70;99.90
2851;DHT22;1433;49.976;8.342;2023-12-22T13:49:08;10.70;99.90
2851;DHT22;1433;49.976;8.342;2023-12-22T13:51:44;10.70;99.90
2851;DHT22;1433;49.976;8.342;2023-12-22T13:54:11;10.70;99.90
2851;DHT22;1433;49.976;8.342;2023-12-22T13:56:38;10.70;99.90
2851;DHT22;1433;49.976;8.342;2023-12-22T13:59:08;10.70;99.90
2851;DHT22;1433;49.976;8.342;2023-12-22T14:01:35;10.70;99.90
2851;DHT22;1433;49.976;8.342;2023-12-22T14:04:01;10.70;99.90
2851;DHT22;1433;49.976;8.342;2023-12-22T14:06:34;10.70;99.90
2851;DHT22;1433;49.976;8.342;2023-12-22T14:09:01;10.70;99.90
2851;DHT22;1433;49.976;8.342;2023-12-22T14:11:27;10.80;99.90
2851;DHT22;1433;49.976;8.342;2023-12-22T14:13:56;10.70;99.90
2851;DHT22;1433;49.976;8.342;2023-12-22T14:16:22;10.70;99.90
2851;DHT22;1433;49.976;8.342;2023-12-22T14:18:48;10.70;99.90
2851;DHT22;1433;49.976;8.342;2023-12-22T14:21:15;10.70;99.90
2851;DHT22;1433;49.976;8.342;2023-12-22T14:23:41;10.70;99.90
2851;DHT22;1433;49.976;8.342;2023-12-22T14:26:07;10.70;99.90
2851;DHT22;1433;49.976;8.342;2023-12-22T14:28:33;10.80;99.90
2851;DHT22;1433;49.976;8.342;2023-12-22T14:31:00;10.80;99.90
2851;DHT22;1433;49.976;8.342;2023-12-22T14:33:27;10.80;99.90
2851;DHT22;1433;49.976;8.342;2023-12-22T14:35:53;10.80;99.90
2851;DHT22;1433;49.976;8.342;2023-12-22T14:38:19;10.80;99.90
2851;DHT22;1433;49.976;8.342;2023-12-22T14:40:46;10.80;99.90
2851;DHT22;1433;49.976;8.342;2023-12-22T14:43:12;10.80;99.90
2851;DHT22;1433;49.976;8.342;2023-12-22T14:45:39;10.80;99.90
2851;DHT22;1433;49.976;8.342;2023-12-22T14:48:05;10.90;99.90
2851;DHT22;1433;49.976;8.342;2023-12-22T14:50:40;10.80;99.90
2851;DHT22;1433;49.976;8.342;2023-12-22T14:53:06;10.80;99.90
2851;DHT22;1433;49.976;8.342;2023-12-22T14:55:32;10.80;99.90
2851;DHT22;1433;49.976;8.342;2023-12-22T14:57:59;10.80;99.90
2851;DHT22;1433;49.976;8.342;2023-12-22T15:00:25;10.80;99.90
2851;DHT22;1433;49.976;8.342;2023-12-22T15:02:59;10.80;99.90
2851;DHT22;1433;49.976;8.342;2023-12-22T15:05:27;10.80;99.90
2851;DHT22;1433;49.976;8.342;2023-12-22T15:08:04;10.80;99.90
2851;DHT22;1433;49.976;8.342;2023-12-22T15:10:32;10.80;99.90
2851;DHT22;1433;49.976;8.342;2023-12-22T15:16:31;10.80;99.90
2851;DHT22;1433;49.976;8.342;2023-12-22T15:18:57;10.80;99.90
2851;DHT22;1433;49.976;8.342;2023-12-22T15:21:23;10.90;99.90
2851;DHT22;1433;49.976;8.342;2023-12-22T15:23:50;10.90;99.90
2851;DHT22;1433;49.976;8.342;2023-12-22T15:26:26;10.90;99.90
2851;DHT22;1433;49.976;8.342;2023-12-22T15:28:53;10.90;99.90
2851;DHT22;1433;49.976;8.342;2023-12-22T15:31:19;10.90;99.90
2851;DHT22;1433;49.976;8.342;2023-12-22T15:33:45;10.80;99.90
2851;DHT22;1433;49.976;8.342;2023-12-22T15:36:18;10.80;99.90
2851;DHT22;1433;49.976;8.342;2023-12-22T15:38:45;10.90;99.90
2851;DHT22;1433;49.976;8.342;2023-12-22T15:41:12;10.90;99.90
2851;DHT22;1433;49.976;8.342;2023-12-22T15:43:38;10.90;99.90
2851;DHT22;1433;49.976;8.342;2023-12-22T15:46:07;10.90;99.90
2851;DHT22;1433;49.976;8.342;2023-12-22T15:48:34;10.90;99.90
2851;DHT22;1433;49.976;8.342;2023-12-22T15:51:11;10.90;99.90
2851;DHT22;1433;49.976;8.342;2023-12-22T15:53:40;10.90;99.90
2851;DHT22;1433;49.976;8.342;2023-12-22T15:56:10;10.90;99.90
2851;DHT22;1433;49.976;8.342;2023-12-22T15:58:39;10.80;99.90
2851;DHT22;1433;49.976;8.342;2023-12-22T16:01:19;10.80;99.90
2851;DHT22;1433;49.976;8.342;2023-12-22T16:03:46;10.80;99.90
2851;DHT22;1433;49.976;8.342;2023-12-22T16:06:14;10.70;99.90
2851;DHT22;1433;49.976;8.342;2023-12-22T16:08:41;10.80;99.90
2851;DHT22;1433;49.976;8.342;2023-12-22T16:11:08;10.80;99.90
2851;DHT22;1433;49.976;8.342;2023-12-22T16:13:35;10.60;99.90
2851;DHT22;1433;49.976;8.342;2023-12-22T16:16:03;10.40;99.90
2851;DHT22;1433;49.976;8.342;2023-12-22T16:18:30;10.20;99.90
2851;DHT22;1433;49.976;8.342;2023-12-22T16:21:00;10.20;99.90
2851;DHT22;1433;49.976;8.342;2023-12-22T16:23:27;10.10;99.90
2851;DHT22;1433;49.976;8.342;2023-12-22T16:28:44;10.10;99.90
2851;DHT22;1433;49.976;8.342;2023-12-22T16:31:11;10.20;99.90
2851;DHT22;1433;49.976;8.342;2023-12-22T16:33:41;10.20;99.90
2851;DHT22;1433;49.976;8.342;2023-12-22T16:36:09;10.30;99.90